sensor_id;sensor_type;location;lat;lon;timestamp;P1;P2;P0
74434;PMS7003;62867;52.038;29.256;2023-06-26T00:02:16;0.2;0.2;0
74434;PMS7003;62867;52.038;29.256;2023-06-26T00:07:14;0.2;0.2;0.2
74434;PMS7003;62867;52.038;29.256;2023-06-26T00:12:48;0.2;0.2;0.2
74434;PMS7003;62867;52.038;29.256;2023-06-26T00:17:16;0.4;0.4;0.2
74434;PMS7003;62867;52.038;29.256;2023-06-26T00:22:00;0.4;0.4;0.2
74434;PMS7003;62867;52.038;29.256;2023-06-26T00:27:30;0.4;0.4;0.4
74434;PMS7003;62867;52.038;29.256;2023-06-26T00:32:32;0.8;0.8;0.4
74434;PMS7003;62867;52.038;29.256;2023-06-26T00:37:48;0.2;0.2;0
74434;PMS7003;62867;52.038;29.256;2023-06-26T00:42:06;0.2;0.2;0.2
74434;PMS7003;62867;52.038;29.256;2023-06-26T00:47:48;0.2;0.2;0.2
74434;PMS7003;62867;52.038;29.256;2023-06-26T00:52:08;0;0;0
74434;PMS7003;62867;52.038;29.256;2023-06-26T00:57:48;0;0;0
74434;PMS7003;62867;52.038;29.256;2023-06-26T01:02:30;0.4;0.2;0.2
74434;PMS7003;62867;52.038;29.256;2023-06-26T01:07:32;0;0;0
74434;PMS7003;62867;52.038;29.256;2023-06-26T01:12:32;0.2;0.2;0
74434;PMS7003;62867;52.038;29.256;2023-06-26T01:17:16;0.6;0.2;0.2
74434;PMS7003;62867;52.038;29.256;2023-06-26T01:22:16;0.4;0.4;0.2
74434;PMS7003;62867;52.038;29.256;2023-06-26T01:27:08;0.2;0.2;0.2
74434;PMS7003;62867;52.038;29.256;2023-06-26T01:32:50;0.8;0.8;0.4
74434;PMS7003;62867;52.038;29.256;2023-06-26T01:37:02;0.2;0.2;0
74434;PMS7003;62867;52.038;29.256;2023-06-26T01:42:50;0.4;0.4;0.2
74434;PMS7003;62867;52.038;29.256;2023-06-26T01:47:50;0.2;0.2;0
74434;PMS7003;62867;52.038;29.256;2023-06-26T01:52:19;0.4;0.4;0
74434;PMS7003;62867;52.038;29.256;2023-06-26T01:56:52;0.8;0.8;0.5
74434;PMS7003;62867;52.038;29.256;2023-06-26T02:02:18;0.6;0.6;0.6
74434;PMS7003;62867;52.038;29.256;2023-06-26T02:07:50;0.4;0.2;0
74434;PMS7003;62867;52.038;29.256;2023-06-26T02:12:34;0.2;0.2;0.2
74434;PMS7003;62867;52.038;29.256;2023-06-26T02:16:52;1;0.8;0.6
74434;PMS7003;62867;52.038;29.256;2023-06-26T02:22:50;0.2;0;0
74434;PMS7003;62867;52.038;29.256;2023-06-26T02:27:50;0.2;0.2;0.2
74434;PMS7003;62867;52.038;29.256;2023-06-26T02:32:10;0.6;0.6;0.2
74434;PMS7003;62867;52.038;29.256;2023-06-26T02:37:16;1;0.6;0.4
74434;PMS7003;62867;52.038;29.256;2023-06-26T02:42:34;0.4;0.4;0.2
74434;PMS7003;62867;52.038;29.256;2023-06-26T02:47:34;1.4;1;0.6
74434;PMS7003;62867;52.038;29.256;2023-06-26T02:52:18;0;0;0
74434;PMS7003;62867;52.038;29.256;2023-06-26T02:57:16;0.8;0.5;0.5
74434;PMS7003;62867;52.038;29.256;2023-06-26T03:02:02;0;0;0
74434;PMS7003;62867;52.038;29.256;2023-06-26T03:06:52;0.2;0.2;0
74434;PMS7003;62867;52.038;29.256;2023-06-26T03:12:06;1.2;0.4;0.4
74434;PMS7003;62867;52.038;29.256;2023-06-26T03:17:50;0.4;0.4;0.4
74434;PMS7003;62867;52.038;29.256;2023-06-26T03:22:04;0.4;0.4;0.2
74434;PMS7003;62867;52.038;29.256;2023-06-26T03:27:50;0.8;0.6;0.6
74434;PMS7003;62867;52.038;29.256;2023-06-26T03:31:52;0.2;0.2;0.2
74434;PMS7003;62867;52.038;29.256;2023-06-26T03:37:06;0.2;0.2;0.2
74434;PMS7003;62867;52.038;29.256;2023-06-26T03:42:48;0.6;0.2;0
74434;PMS7003;62867;52.038;29.256;2023-06-26T03:47:16;0.8;0.4;0.2
74434;PMS7003;62867;52.038;29.256;2023-06-26T03:51:52;0.2;0.2;0
74434;PMS7003;62867;52.038;29.256;2023-06-26T03:57:34;0;0;0
74434;PMS7003;62867;52.038;29.256;2023-06-26T04:02:34;0.4;0.2;0
74434;PMS7003;62867;52.038;29.256;2023-06-26T04:07:16;0;0;0
74434;PMS7003;62867;52.038;29.256;2023-06-26T04:11:52;0.4;0.4;0.4
74434;PMS7003;62867;52.038;29.256;2023-06-26T04:17:50;0.4;0.4;0.2
74434;PMS7003;62867;52.038;29.256;2023-06-26T04:22:50;0;0;0
74434;PMS7003;62867;52.038;29.256;2023-06-26T04:27:18;0;0;0
74434;PMS7003;62867;52.038;29.256;2023-06-26T04:32:16;0.4;0.4;0.2
74434;PMS7003;62867;52.038;29.256;2023-06-26T04:37:50;0.6;0.4;0.2
74434;PMS7003;62867;52.038;29.256;2023-06-26T04:42:18;0.8;0.4;0
74434;PMS7003;62867;52.038;29.256;2023-06-26T04:46:52;0.2;0.2;0.2
74434;PMS7003;62867;52.038;29.256;2023-06-26T04:52:30;0.2;0;0
74434;PMS7003;62867;52.038;29.256;2023-06-26T04:57:34;0.4;0.4;0.2
74434;PMS7003;62867;52.038;29.256;2023-06-26T05:02:50;0.5;0.5;0.3
74434;PMS7003;62867;52.038;29.256;2023-06-26T05:07:34;0.6;0.6;0.4
74434;PMS7003;62867;52.038;29.256;2023-06-26T05:12:48;0.4;0;0
74434;PMS7003;62867;52.038;29.256;2023-06-26T05:16:52;0.2;0.2;0
74434;PMS7003;62867;52.038;29.256;2023-06-26T05:22:46;0.4;0.4;0.4
74434;PMS7003;62867;52.038;29.256;2023-06-26T05:27:06;0.2;0.2;0
74434;PMS7003;62867;52.038;29.256;2023-06-26T05:32:34;0.2;0.2;0.2
74434;PMS7003;62867;52.038;29.256;2023-06-26T05:37:33;0;0;0
74434;PMS7003;62867;52.038;29.256;2023-06-26T05:42:30;0;0;0
74434;PMS7003;62867;52.038;29.256;2023-06-26T05:47:02;0.4;0.2;0
74434;PMS7003;62867;52.038;29.256;2023-06-26T05:52:02;0;0;0
74434;PMS7003;62867;52.038;29.256;2023-06-26T05:57:48;0.6;0.6;0.2
74434;PMS7003;62867;52.038;29.256;2023-06-26T06:02:04;0.3;0.3;0
74434;PMS7003;62867;52.038;29.256;2023-06-26T06:07:49;0;0;0
74434;PMS7003;62867;52.038;29.256;2023-06-26T06:12:48;0.4;0.2;0.2
74434;PMS7003;62867;52.038;29.256;2023-06-26T06:17:28;0;0;0
74434;PMS7003;62867;52.038;29.256;2023-06-26T06:22:04;0.2;0.2;0
74434;PMS7003;62867;52.038;29.256;2023-06-26T06:26:52;0;0;0
74434;PMS7003;62867;52.038;29.256;2023-06-26T06:32:48;0.2;0.2;0
74434;PMS7003;62867;52.038;29.256;2023-06-26T06:37:32;0.2;0;0
74434;PMS7003;62867;52.038;29.256;2023-06-26T06:42:18;0;0;0
74434;PMS7003;62867;52.038;29.256;2023-06-26T06:47:46;0;0;0
74434;PMS7003;62867;52.038;29.256;2023-06-26T06:52:30;0;0;0
74434;PMS7003;62867;52.038;29.256;2023-06-26T06:57:04;0;0;0
74434;PMS7003;62867;52.038;29.256;2023-06-26T07:02:32;0.3;0.3;0
74434;PMS7003;62867;52.038;29.256;2023-06-26T07:07:33;0.2;0.2;0
74434;PMS7003;62867;52.038;29.256;2023-06-26T07:12:32;0;0;0
74434;PMS7003;62867;52.038;29.256;2023-06-26T07:16:52;0.2;0;0
74434;PMS7003;62867;52.038;29.256;2023-06-26T07:22:16;0.4;0.2;0.2
74434;PMS7003;62867;52.038;29.256;2023-06-26T07:26:52;0;0;0
74434;PMS7003;62867;52.038;29.256;2023-06-26T07:32:14;0;0;0
74434;PMS7003;62867;52.038;29.256;2023-06-26T07:37:14;0;0;0
74434;PMS7003;62867;52.038;29.256;2023-06-26T07:42:48;0;0;0
74434;PMS7003;62867;52.038;29.256;2023-06-26T07:47:32;0;0;0
74434;PMS7003;62867;52.038;29.256;2023-06-26T07:52:48;0;0;0
74434;PMS7003;62867;52.038;29.256;2023-06-26T07:57:16;0;0;0
74434;PMS7003;62867;52.038;29.256;2023-06-26T08:02:03;0;0;0
74434;PMS7003;62867;52.038;29.256;2023-06-26T08:07:14;0;0;0
74434;PMS7003;62867;52.038;29.256;2023-06-26T08:12:14;0;0;0
74434;PMS7003;62867;52.038;29.256;2023-06-26T08:17:18;0;0;0
74434;PMS7003;62867;52.038;29.256;2023-06-26T08:22:34;0;0;0
74434;PMS7003;62867;52.038;29.256;2023-06-26T08:27:46;0;0;0
74434;PMS7003;62867;52.038;29.256;2023-06-26T08:32:06;0;0;0
74434;PMS7003;62867;52.038;29.256;2023-06-26T08:37:00;0;0;0
74434;PMS7003;62867;52.038;29.256;2023-06-26T08:42:44;0.6;0.2;0
74434;PMS7003;62867;52.038;29.256;2023-06-26T08:47:11;0.4;0;0
74434;PMS7003;62867;52.038;29.256;2023-06-26T08:52:17;0;0;0
74434;PMS7003;62867;52.038;29.256;2023-06-26T08:57:30;0.6;0.4;0.2
74434;PMS7003;62867;52.038;29.256;2023-06-26T09:02:30;0.3;0.3;0.3
74434;PMS7003;62867;52.038;29.256;2023-06-26T09:06:52;0;0;0
74434;PMS7003;62867;52.038;29.256;2023-06-26T09:12:01;0;0;0
74434;PMS7003;62867;52.038;29.256;2023-06-26T09:17:33;0;0;0
74434;PMS7003;62867;52.038;29.256;2023-06-26T09:22:47;0;0;0
74434;PMS7003;62867;52.038;29.256;2023-06-26T09:27:30;0;0;0
74434;PMS7003;62867;52.038;29.256;2023-06-26T09:31:52;0.2;0;0
74434;PMS7003;62867;52.038;29.256;2023-06-26T09:37:46;0.6;0.4;0
74434;PMS7003;62867;52.038;29.256;2023-06-26T09:41:52;0.4;0.2;0
74434;PMS7003;62867;52.038;29.256;2023-06-26T09:47:16;0.2;0.2;0.2
74434;PMS7003;62867;52.038;29.256;2023-06-26T09:52:15;0.2;0.2;0.2
74434;PMS7003;62867;52.038;29.256;2023-06-26T09:57:30;0.2;0.2;0
74434;PMS7003;62867;52.038;29.256;2023-06-26T10:02:44;0;0;0
74434;PMS7003;62867;52.038;29.256;2023-06-26T10:06:54;0;0;0
74434;PMS7003;62867;52.038;29.256;2023-06-26T10:12:45;0;0;0
74434;PMS7003;62867;52.038;29.256;2023-06-26T10:16:52;0;0;0
74434;PMS7003;62867;52.038;29.256;2023-06-26T10:22:47;0;0;0
74434;PMS7003;62867;52.038;29.256;2023-06-26T10:27:47;0;0;0
74434;PMS7003;62867;52.038;29.256;2023-06-26T10:32:32;0.2;0.2;0
74434;PMS7003;62867;52.038;29.256;2023-06-26T10:37:46;0.2;0.2;0.2
74434;PMS7003;62867;52.038;29.256;2023-06-26T10:42:33;0;0;0
74434;PMS7003;62867;52.038;29.256;2023-06-26T10:46:53;0;0;0
74434;PMS7003;62867;52.038;29.256;2023-06-26T10:52:01;0.2;0.2;0.2
74434;PMS7003;62867;52.038;29.256;2023-06-26T10:57:46;0.4;0.2;0.2
74434;PMS7003;62867;52.038;29.256;2023-06-26T11:02:12;0;0;0
74434;PMS7003;62867;52.038;29.256;2023-06-26T11:08:02;0.5;0;0
74434;PMS7003;62867;52.038;29.256;2023-06-26T11:12:46;0;0;0
74434;PMS7003;62867;52.038;29.256;2023-06-26T11:17:27;0;0;0
74434;PMS7003;62867;52.038;29.256;2023-06-26T11:21:54;0;0;0
74434;PMS7003;62867;52.038;29.256;2023-06-26T11:27:16;0;0;0
74434;PMS7003;62867;52.038;29.256;2023-06-26T11:32:46;0;0;0
74434;PMS7003;62867;52.038;29.256;2023-06-26T11:37:28;0.2;0;0
74434;PMS7003;62867;52.038;29.256;2023-06-26T11:42:19;0;0;0
74434;PMS7003;62867;52.038;29.256;2023-06-26T11:47:48;0;0;0
74434;PMS7003;62867;52.038;29.256;2023-06-26T11:51:53;0;0;0
74434;PMS7003;62867;52.038;29.256;2023-06-26T11:57:03;0.6;0;0
74434;PMS7003;62867;52.038;29.256;2023-06-26T12:02:15;0;0;0
74434;PMS7003;62867;52.038;29.256;2023-06-26T12:07:49;0;0;0
74434;PMS7003;62867;52.038;29.256;2023-06-26T12:12:23;0;0;0
74434;PMS7003;62867;52.038;29.256;2023-06-26T12:17:49;0;0;0
74434;PMS7003;62867;52.038;29.256;2023-06-26T12:22:07;0.2;0.2;0
74434;PMS7003;62867;52.038;29.256;2023-06-26T12:27:07;0;0;0
74434;PMS7003;62867;52.038;29.256;2023-06-26T12:31:53;0;0;0
74434;PMS7003;62867;52.038;29.256;2023-06-26T12:37:15;0;0;0
74434;PMS7003;62867;52.038;29.256;2023-06-26T12:42:19;0;0;0
74434;PMS7003;62867;52.038;29.256;2023-06-26T12:47:35;0;0;0
74434;PMS7003;62867;52.038;29.256;2023-06-26T12:52:51;0;0;0
74434;PMS7003;62867;52.038;29.256;2023-06-26T12:57:17;0;0;0
74434;PMS7003;62867;52.038;29.256;2023-06-26T13:02:17;0;0;0
74434;PMS7003;62867;52.038;29.256;2023-06-26T13:07:51;0.3;0;0
74434;PMS7003;62867;52.038;29.256;2023-06-26T13:12:18;0;0;0
74434;PMS7003;62867;52.038;29.256;2023-06-26T13:17:19;0;0;0
74434;PMS7003;62867;52.038;29.256;2023-06-26T13:22:35;0;0;0
74434;PMS7003;62867;52.038;29.256;2023-06-26T13:27:35;0;0;0
74434;PMS7003;62867;52.038;29.256;2023-06-26T13:32:23;0;0;0
74434;PMS7003;62867;52.038;29.256;2023-06-26T13:37:03;0;0;0
74434;PMS7003;62867;52.038;29.256;2023-06-26T13:42:51;0;0;0
74434;PMS7003;62867;52.038;29.256;2023-06-26T13:47:51;0;0;0
74434;PMS7003;62867;52.038;29.256;2023-06-26T13:52:51;0;0;0
74434;PMS7003;62867;52.038;29.256;2023-06-26T13:56:53;0;0;0
74434;PMS7003;62867;52.038;29.256;2023-06-26T14:02:51;0;0;0
74434;PMS7003;62867;52.038;29.256;2023-06-26T14:07:19;0;0;0
74434;PMS7003;62867;52.038;29.256;2023-06-26T14:12:35;0.6;0.2;0
74434;PMS7003;62867;52.038;29.256;2023-06-26T14:17:33;0.2;0.2;0
74434;PMS7003;62867;52.038;29.256;2023-06-26T14:22:37;0.2;0;0
74434;PMS7003;62867;52.038;29.256;2023-06-26T14:27:51;0;0;0
74434;PMS7003;62867;52.038;29.256;2023-06-26T14:31:53;0;0;0
74434;PMS7003;62867;52.038;29.256;2023-06-26T14:37:51;0;0;0
74434;PMS7003;62867;52.038;29.256;2023-06-26T14:42:19;0;0;0
74434;PMS7003;62867;52.038;29.256;2023-06-26T14:47:51;0;0;0
74434;PMS7003;62867;52.038;29.256;2023-06-26T14:52:09;0;0;0
74434;PMS7003;62867;52.038;29.256;2023-06-26T14:57:35;0;0;0
74434;PMS7003;62867;52.038;29.256;2023-06-26T15:01:55;0;0;0
74434;PMS7003;62867;52.038;29.256;2023-06-26T15:07:19;0;0;0
74434;PMS7003;62867;52.038;29.256;2023-06-26T15:11:53;0.3;0;0
74434;PMS7003;62867;52.038;29.256;2023-06-26T15:17:19;0;0;0
74434;PMS7003;62867;52.038;29.256;2023-06-26T15:22:49;0;0;0
74434;PMS7003;62867;52.038;29.256;2023-06-26T15:27:03;0;0;0
74434;PMS7003;62867;52.038;29.256;2023-06-26T15:32:51;0;0;0
74434;PMS7003;62867;52.038;29.256;2023-06-26T15:37:51;0;0;0
74434;PMS7003;62867;52.038;29.256;2023-06-26T15:42:33;18;16.8;15
74434;PMS7003;62867;52.038;29.256;2023-06-26T15:46:53;32;30.6;28.6
74434;PMS7003;62867;52.038;29.256;2023-06-26T15:51:53;18.8;16.8;16
74434;PMS7003;62867;52.038;29.256;2023-06-26T15:57:51;7;6.8;6.8
74434;PMS7003;62867;52.038;29.256;2023-06-26T16:02:36;8.6;8.6;8.4
74434;PMS7003;62867;52.038;29.256;2023-06-26T16:07:03;12.2;12.2;12
74434;PMS7003;62867;52.038;29.256;2023-06-26T16:12:17;11.5;11.5;11.5
74434;PMS7003;62867;52.038;29.256;2023-06-26T16:17:35;10.6;10.6;10.6
74434;PMS7003;62867;52.038;29.256;2023-06-26T16:21:53;7.4;7.4;7.4
74434;PMS7003;62867;52.038;29.256;2023-06-26T16:27:17;3.2;3.2;3
74434;PMS7003;62867;52.038;29.256;2023-06-26T16:32:51;0;0;0
74434;PMS7003;62867;52.038;29.256;2023-06-26T16:37:35;0;0;0
74434;PMS7003;62867;52.038;29.256;2023-06-26T16:42:51;0;0;0
74434;PMS7003;62867;52.038;29.256;2023-06-26T16:47:17;0;0;0
74434;PMS7003;62867;52.038;29.256;2023-06-26T16:52:03;0;0;0
74434;PMS7003;62867;52.038;29.256;2023-06-26T16:57:17;0;0;0
74434;PMS7003;62867;52.038;29.256;2023-06-26T17:02:17;0;0;0
74434;PMS7003;62867;52.038;29.256;2023-06-26T17:07:19;0;0;0
74434;PMS7003;62867;52.038;29.256;2023-06-26T17:12:36;0;0;0
74434;PMS7003;62867;52.038;29.256;2023-06-26T17:17:35;0;0;0
74434;PMS7003;62867;52.038;29.256;2023-06-26T17:22:15;0;0;0
74434;PMS7003;62867;52.038;29.256;2023-06-26T17:26:53;0;0;0
74434;PMS7003;62867;52.038;29.256;2023-06-26T17:32:51;0;0;0
74434;PMS7003;62867;52.038;29.256;2023-06-26T17:37:17;0;0;0
74434;PMS7003;62867;52.038;29.256;2023-06-26T17:41:53;0;0;0
74434;PMS7003;62867;52.038;29.256;2023-06-26T17:47:35;0;0;0
74434;PMS7003;62867;52.038;29.256;2023-06-26T17:52:35;0;0;0
74434;PMS7003;62867;52.038;29.256;2023-06-26T17:57:17;0;0;0
74434;PMS7003;62867;52.038;29.256;2023-06-26T18:01:53;0;0;0
74434;PMS7003;62867;52.038;29.256;2023-06-26T18:07:49;0;0;0
74434;PMS7003;62867;52.038;29.256;2023-06-26T18:12:49;0;0;0
74434;PMS7003;62867;52.038;29.256;2023-06-26T18:17:19;0;0;0
74434;PMS7003;62867;52.038;29.256;2023-06-26T18:22:07;0;0;0
74434;PMS7003;62867;52.038;29.256;2023-06-26T18:27:35;0;0;0
74434;PMS7003;62867;52.038;29.256;2023-06-26T18:32:35;0;0;0
74434;PMS7003;62867;52.038;29.256;2023-06-26T18:37:07;0;0;0
74434;PMS7003;62867;52.038;29.256;2023-06-26T18:42:10;0;0;0
74434;PMS7003;62867;52.038;29.256;2023-06-26T18:47:33;0;0;0
74434;PMS7003;62867;52.038;29.256;2023-06-26T18:52:49;0;0;0
74434;PMS7003;62867;52.038;29.256;2023-06-26T18:57:17;0;0;0
74434;PMS7003;62867;52.038;29.256;2023-06-26T19:02:47;0;0;0
74434;PMS7003;62867;52.038;29.256;2023-06-26T19:06:53;0;0;0
74434;PMS7003;62867;52.038;29.256;2023-06-26T19:12:51;0;0;0
74434;PMS7003;62867;52.038;29.256;2023-06-26T19:17:33;0;0;0
74434;PMS7003;62867;52.038;29.256;2023-06-26T19:22:35;0;0;0
74434;PMS7003;62867;52.038;29.256;2023-06-26T19:27:23;0;0;0
74434;PMS7003;62867;52.038;29.256;2023-06-26T19:32:33;0;0;0
74434;PMS7003;62867;52.038;29.256;2023-06-26T19:37:21;9;9;9
74434;PMS7003;62867;52.038;29.256;2023-06-26T19:41:53;5.2;5.2;5
74434;PMS7003;62867;52.038;29.256;2023-06-26T19:47:51;7;7;6.8
74434;PMS7003;62867;52.038;29.256;2023-06-26T19:52:17;6.8;6.4;6.4
74434;PMS7003;62867;52.038;29.256;2023-06-26T19:57:51;4.8;4.8;4.8
74434;PMS7003;62867;52.038;29.256;2023-06-26T20:02:51;0.2;0.2;0.2
74434;PMS7003;62867;52.038;29.256;2023-06-26T20:07:33;0.6;0.6;0.6
74434;PMS7003;62867;52.038;29.256;2023-06-26T20:12:03;1.8;1.8;1.8
74434;PMS7003;62867;52.038;29.256;2023-06-26T20:17:17;0;0;0
74434;PMS7003;62867;52.038;29.256;2023-06-26T20:22:33;0;0;0
74434;PMS7003;62867;52.038;29.256;2023-06-26T20:27:35;0.2;0.2;0.2
74434;PMS7003;62867;52.038;29.256;2023-06-26T20:32:19;0;0;0
74434;PMS7003;62867;52.038;29.256;2023-06-26T20:37:15;0.2;0;0
74434;PMS7003;62867;52.038;29.256;2023-06-26T20:42:03;0;0;0
74434;PMS7003;62867;52.038;29.256;2023-06-26T20:47:03;0;0;0
74434;PMS7003;62867;52.038;29.256;2023-06-26T20:52:10;0;0;0
74434;PMS7003;62867;52.038;29.256;2023-06-26T20:57:45;0;0;0
74434;PMS7003;62867;52.038;29.256;2023-06-26T21:02:17;0;0;0
74434;PMS7003;62867;52.038;29.256;2023-06-26T21:07:49;0;0;0
74434;PMS7003;62867;52.038;29.256;2023-06-26T21:12:31;0;0;0
74434;PMS7003;62867;52.038;29.256;2023-06-26T21:16:53;0;0;0
74434;PMS7003;62867;52.038;29.256;2023-06-26T21:22:03;0;0;0
74434;PMS7003;62867;52.038;29.256;2023-06-26T21:26:53;0;0;0
74434;PMS7003;62867;52.038;29.256;2023-06-26T21:32:09;0;0;0
74434;PMS7003;62867;52.038;29.256;2023-06-26T21:37:23;0;0;0
74434;PMS7003;62867;52.038;29.256;2023-06-26T21:42:49;0;0;0
74434;PMS7003;62867;52.038;29.256;2023-06-26T21:47:31;0;0;0
74434;PMS7003;62867;52.038;29.256;2023-06-26T21:51:53;0;0;0
74434;PMS7003;62867;52.038;29.256;2023-06-26T21:57:51;0;0;0
74434;PMS7003;62867;52.038;29.256;2023-06-26T22:02:07;0;0;0
74434;PMS7003;62867;52.038;29.256;2023-06-26T22:07:19;0;0;0
74434;PMS7003;62867;52.038;29.256;2023-06-26T22:12:33;0;0;0
74434;PMS7003;62867;52.038;29.256;2023-06-26T22:17:11;0;0;0
74434;PMS7003;62867;52.038;29.256;2023-06-26T22:22:17;0;0;0
74434;PMS7003;62867;52.038;29.256;2023-06-26T22:27:03;0;0;0
74434;PMS7003;62867;52.038;29.256;2023-06-26T22:32:51;0;0;0
74434;PMS7003;62867;52.038;29.256;2023-06-26T22:37:51;0;0;0
74434;PMS7003;62867;52.038;29.256;2023-06-26T22:42:03;0;0;0
74434;PMS7003;62867;52.038;29.256;2023-06-26T22:47:19;0;0;0
74434;PMS7003;62867;52.038;29.256;2023-06-26T22:52:51;0;0;0
74434;PMS7003;62867;52.038;29.256;2023-06-26T22:57:03;0;0;0
74434;PMS7003;62867;52.038;29.256;2023-06-26T23:02:21;0;0;0
74434;PMS7003;62867;52.038;29.256;2023-06-26T23:07:31;0;0;0
74434;PMS7003;62867;52.038;29.256;2023-06-26T23:12:35;0;0;0
74434;PMS7003;62867;52.038;29.256;2023-06-26T23:17:51;0;0;0
74434;PMS7003;62867;52.038;29.256;2023-06-26T23:22:17;0;0;0
74434;PMS7003;62867;52.038;29.256;2023-06-26T23:27:51;0;0;0
74434;PMS7003;62867;52.038;29.256;2023-06-26T23:31:53;0.2;0;0
74434;PMS7003;62867;52.038;29.256;2023-06-26T23:37:51;0;0;0
74434;PMS7003;62867;52.038;29.256;2023-06-26T23:42:33;0;0;0
74434;PMS7003;62867;52.038;29.256;2023-06-26T23:47:51;0;0;0
74434;PMS7003;62867;52.038;29.256;2023-06-26T23:52:11;0.2;0;0
74434;PMS7003;62867;52.038;29.256;2023-06-26T23:57:33;0;0;0
